createdAt,value
2022-08-17T00:02:25.470Z,10.37
2022-08-17T00:04:53.935Z,10.87
2022-08-17T00:07:20.521Z,8.60
2022-08-17T00:09:50.452Z,13.00
2022-08-17T00:12:43.116Z,8.20
2022-08-17T00:15:05.779Z,10.60
2022-08-17T00:17:37.570Z,8.70
2022-08-17T00:20:05.067Z,11.03
2022-08-17T00:22:36.492Z,10.43
2022-08-17T00:25:05.669Z,8.67
2022-08-17T00:27:33.312Z,11.37
2022-08-17T00:29:59.914Z,9.83
2022-08-17T00:33:13.639Z,10.20
2022-08-17T00:35:17.627Z,10.03
2022-08-17T00:37:44.671Z,8.30
2022-08-17T00:40:13.880Z,8.80
2022-08-17T00:42:41.977Z,10.73
2022-08-17T00:45:12.152Z,12.03
2022-08-17T00:47:39.250Z,10.37
2022-08-17T00:50:09.858Z,10.37
2022-08-17T00:52:43.242Z,12.27
2022-08-17T00:55:11.032Z,11.23
2022-08-17T00:57:45.580Z,11.43
2022-08-17T01:00:15.749Z,9.13
2022-08-17T01:02:45.180Z,14.10
2022-08-17T01:05:20.776Z,9.40
2022-08-17T01:07:50.670Z,10.17
2022-08-17T01:10:59.306Z,14.10
2022-08-17T01:13:11.109Z,9.30
2022-08-17T01:15:41.375Z,12.57
2022-08-17T01:18:13.967Z,12.73
2022-08-17T01:20:53.246Z,10.60
2022-08-17T01:23:23.414Z,9.90
2022-08-17T01:25:53.254Z,9.67
2022-08-17T01:28:53.073Z,12.20
2022-08-17T01:31:08.714Z,10.63
2022-08-17T01:33:35.912Z,10.73
2022-08-17T01:36:04.098Z,9.97
2022-08-17T01:38:31.818Z,11.10
2022-08-17T01:41:06.298Z,10.63
2022-08-17T01:43:39.514Z,10.80
2022-08-17T01:46:06.546Z,10.53
2022-08-17T01:48:35.345Z,11.10
2022-08-17T01:51:02.562Z,13.27
2022-08-17T01:53:34.760Z,11.87
2022-08-17T01:56:09.881Z,13.27
2022-08-17T01:58:38.062Z,12.50
2022-08-17T02:01:05.910Z,15.80
2022-08-17T02:03:34.600Z,11.33
2022-08-17T02:06:02.970Z,12.83
2022-08-17T02:08:39.300Z,12.80
2022-08-17T02:11:22.872Z,12.40
2022-08-17T02:13:55.031Z,11.50
2022-08-17T02:16:29.072Z,14.10
2022-08-17T02:19:07.174Z,12.70
2022-08-17T02:21:34.220Z,14.43
2022-08-17T02:24:01.014Z,11.30
2022-08-17T02:26:28.032Z,13.50
2022-08-17T02:28:54.814Z,11.87
2022-08-17T02:31:21.457Z,14.50
2022-08-17T02:34:03.528Z,16.00
2022-08-17T02:36:33.922Z,14.40
2022-08-17T02:39:06.465Z,18.10
2022-08-17T02:41:33.259Z,12.97
2022-08-17T02:44:00.236Z,15.47
2022-08-17T02:46:26.929Z,14.63
2022-08-17T02:48:53.554Z,14.23
2022-08-17T02:51:20.151Z,14.50
2022-08-17T02:53:46.811Z,17.80
2022-08-17T02:56:13.452Z,14.50
2022-08-17T02:58:40.521Z,15.40
2022-08-17T03:01:09.187Z,15.40
2022-08-17T03:03:39.823Z,16.07
2022-08-17T03:06:07.554Z,14.37
2022-08-17T03:08:34.633Z,14.70
2022-08-17T03:11:01.552Z,13.63
2022-08-17T03:13:28.248Z,15.30
2022-08-17T03:15:54.848Z,15.53
2022-08-17T03:18:25.345Z,15.40
2022-08-17T03:20:54.365Z,16.87
2022-08-17T03:23:24.307Z,15.60
2022-08-17T03:25:53.513Z,15.10
2022-08-17T03:28:21.461Z,14.03
2022-08-17T03:30:48.250Z,15.03
2022-08-17T03:33:16.116Z,17.40
2022-08-17T03:35:43.263Z,13.83
2022-08-17T03:38:11.440Z,17.03
2022-08-17T03:40:57.676Z,17.00
2022-08-17T03:43:27.571Z,17.47
2022-08-17T03:46:28.896Z,15.40
2022-08-17T03:49:18.030Z,21.47
2022-08-17T03:52:03.506Z,15.40
2022-08-17T03:54:48.872Z,16.80
2022-08-17T03:57:16.238Z,16.80
2022-08-17T03:59:45.175Z,13.07
2022-08-17T04:02:23.343Z,21.03
2022-08-17T04:04:50.811Z,18.93
2022-08-17T04:07:19.376Z,15.70
2022-08-17T04:09:46.174Z,16.20
2022-08-17T04:12:16.006Z,18.20
2022-08-17T04:14:52.854Z,16.63
2022-08-17T04:17:23.739Z,15.50
2022-08-17T04:19:50.386Z,16.17
2022-08-17T04:22:31.766Z,14.47
2022-08-17T04:25:08.942Z,16.67
2022-08-17T04:27:36.306Z,18.00
2022-08-17T04:30:03.357Z,16.50
2022-08-17T04:33:03.640Z,16.83
2022-08-17T04:35:20.078Z,16.23
2022-08-17T04:37:47.337Z,20.53
2022-08-17T04:40:33.042Z,12.03
2022-08-17T04:43:05.515Z,15.70
2022-08-17T04:45:32.714Z,14.50
2022-08-17T04:48:00.529Z,19.67
2022-08-17T04:50:27.599Z,23.83
2022-08-17T04:52:54.304Z,18.60
2022-08-17T04:55:21.370Z,15.17
2022-08-17T04:57:48.052Z,17.53
2022-08-17T05:00:14.961Z,17.20
2022-08-17T05:02:49.910Z,21.20
2022-08-17T05:05:23.037Z,17.03
2022-08-17T05:07:56.468Z,16.00
2022-08-17T05:10:25.364Z,20.33
2022-08-17T05:13:23.740Z,17.43
2022-08-17T05:15:59.890Z,25.70
2022-08-17T05:18:27.580Z,16.47
2022-08-17T05:20:54.792Z,17.73
2022-08-17T05:23:24.217Z,17.40
2022-08-17T05:25:54.518Z,15.80
2022-08-17T05:28:24.191Z,20.57
2022-08-17T05:30:56.672Z,18.80
2022-08-17T05:33:26.269Z,19.33
2022-08-17T05:35:59.018Z,22.23
2022-08-17T05:38:28.732Z,36.73
2022-08-17T05:40:56.024Z,24.67
2022-08-17T05:43:30.241Z,17.33
2022-08-17T05:46:26.161Z,17.07
2022-08-17T05:49:03.409Z,19.90
2022-08-17T05:52:03.895Z,22.60
2022-08-17T05:55:14.209Z,17.30
2022-08-17T05:57:59.790Z,18.33
2022-08-17T06:00:50.632Z,24.80
2022-08-17T06:03:39.456Z,16.97
2022-08-17T06:06:11.371Z,18.90
2022-08-17T06:09:37.101Z,17.63
2022-08-17T06:12:25.067Z,17.57
2022-08-17T06:15:10.588Z,17.43
2022-08-17T06:17:37.860Z,18.73
2022-08-17T06:20:15.850Z,16.00
2022-08-17T06:22:50.017Z,13.77
2022-08-17T06:25:31.435Z,15.87
2022-08-17T06:28:07.641Z,15.60
2022-08-17T06:31:00.624Z,14.20
2022-08-17T06:33:33.983Z,10.90
2022-08-17T06:36:16.022Z,14.47
2022-08-17T06:39:03.026Z,12.27
2022-08-17T06:41:55.762Z,16.07
2022-08-17T06:44:43.583Z,13.17
2022-08-17T06:47:31.510Z,11.70
2022-08-17T06:50:17.088Z,14.40
2022-08-17T06:53:09.977Z,10.60
2022-08-17T06:55:45.058Z,12.97
2022-08-17T06:58:16.660Z,10.97
2022-08-17T07:00:47.026Z,10.50
2022-08-17T07:03:41.349Z,9.90
2022-08-17T07:06:27.631Z,8.63
2022-08-17T07:09:23.276Z,15.10
2022-08-17T07:12:11.405Z,9.83
2022-08-17T07:14:51.405Z,12.83
2022-08-17T07:17:19.360Z,10.77
2022-08-17T07:19:48.890Z,9.93
2022-08-17T07:23:00.249Z,11.23
2022-08-17T07:25:28.470Z,10.87
2022-08-17T07:27:59.697Z,11.60
2022-08-17T07:30:44.626Z,12.53
2022-08-17T07:33:20.103Z,14.77
2022-08-17T07:35:48.262Z,14.20
2022-08-17T07:38:25.664Z,12.00
2022-08-17T07:41:03.008Z,14.53
2022-08-17T07:43:52.181Z,11.03
2022-08-17T07:46:41.175Z,10.70
2022-08-17T07:49:10.496Z,12.93
2022-08-17T07:51:52.687Z,11.13
2022-08-17T07:54:24.489Z,8.20
2022-08-17T07:56:54.214Z,6.20
2022-08-17T07:59:24.792Z,9.23
2022-08-17T08:01:57.964Z,8.87
2022-08-17T08:07:20.429Z,7.97
2022-08-17T08:10:06.137Z,9.23
2022-08-17T08:12:44.874Z,9.80
2022-08-17T08:15:22.766Z,10.90
2022-08-17T08:17:52.402Z,11.10
2022-08-17T08:20:40.862Z,8.57
2022-08-17T08:23:29.440Z,13.93
2022-08-17T08:26:01.382Z,12.03
2022-08-17T08:28:49.257Z,13.03
2022-08-17T08:31:16.276Z,9.37
2022-08-17T08:33:54.852Z,8.57
2022-08-17T08:37:14.063Z,10.57
2022-08-17T08:40:08.152Z,6.87
2022-08-17T08:43:02.240Z,7.37
2022-08-17T08:45:50.962Z,6.47
2022-08-17T08:48:52.794Z,7.27
2022-08-17T08:51:23.633Z,5.90
2022-08-17T08:54:01.636Z,6.70
2022-08-17T08:56:37.266Z,7.43
2022-08-17T08:59:27.981Z,10.13
2022-08-17T09:02:28.789Z,8.40
2022-08-17T09:05:16.346Z,6.63
2022-08-17T09:08:01.601Z,9.63
2022-08-17T09:10:50.097Z,9.73
2022-08-17T09:13:44.202Z,9.73
2022-08-17T09:16:33.053Z,8.87
2022-08-17T09:19:14.855Z,9.67
2022-08-17T09:21:54.439Z,8.03
2022-08-17T09:24:33.409Z,10.33
2022-08-17T09:27:03.082Z,5.83
2022-08-17T09:29:34.792Z,8.33
2022-08-17T09:32:17.444Z,10.87
2022-08-17T09:34:53.464Z,14.37
2022-08-17T09:37:29.653Z,8.23
2022-08-17T09:40:19.786Z,8.57
2022-08-17T09:43:09.349Z,9.90
2022-08-17T09:45:43.321Z,9.17
2022-08-17T09:48:19.363Z,6.27
2022-08-17T09:51:06.003Z,7.20
2022-08-17T09:53:36.182Z,7.40
2022-08-17T09:56:31.772Z,10.03
2022-08-17T09:59:20.402Z,8.00
2022-08-17T10:02:13.516Z,5.77
2022-08-17T10:04:49.799Z,5.50
2022-08-17T10:07:56.082Z,6.53
2022-08-17T10:10:29.611Z,6.90
2022-08-17T10:13:12.026Z,8.00
2022-08-17T10:15:48.129Z,7.90
2022-08-17T10:18:37.608Z,7.10
2022-08-17T10:21:35.036Z,8.03
2022-08-17T10:25:23.263Z,8.67
2022-08-17T10:27:52.588Z,8.70
2022-08-17T10:30:23.672Z,14.77
2022-08-17T10:32:55.684Z,8.37
2022-08-17T10:35:37.883Z,7.77
2022-08-17T10:38:21.635Z,10.80
2022-08-17T10:41:06.570Z,9.70
2022-08-17T10:44:40.322Z,6.83
2022-08-17T10:47:04.532Z,11.07
2022-08-17T10:49:37.093Z,12.80
2022-08-17T10:52:24.969Z,9.53
2022-08-17T10:54:51.831Z,10.43
2022-08-17T10:57:33.793Z,9.37
2022-08-17T11:00:02.756Z,9.93
2022-08-17T11:02:49.984Z,9.50
2022-08-17T11:05:32.947Z,9.37
2022-08-17T11:08:01.573Z,8.47
2022-08-17T11:11:23.116Z,14.43
2022-08-17T11:14:06.171Z,10.10
2022-08-17T11:16:41.832Z,15.83
2022-08-17T11:19:11.384Z,13.17
2022-08-17T11:21:57.253Z,11.30
2022-08-17T11:24:44.648Z,13.27
2022-08-17T11:27:26.521Z,13.27
2022-08-17T11:30:02.099Z,11.53
2022-08-17T11:32:54.820Z,14.70
2022-08-17T11:35:21.701Z,13.30
2022-08-17T11:38:16.327Z,14.20
2022-08-17T11:40:52.229Z,7.47
2022-08-17T11:43:45.610Z,15.83
2022-08-17T11:47:15.593Z,13.73
2022-08-17T11:50:01.369Z,15.30
2022-08-17T11:52:41.130Z,17.10
2022-08-17T11:55:36.632Z,13.23
2022-08-17T11:58:18.555Z,17.57
2022-08-17T12:00:45.670Z,11.10
2022-08-17T12:03:33.261Z,13.77
2022-08-17T12:06:03.092Z,14.10
2022-08-17T12:08:33.442Z,16.10
2022-08-17T12:11:16.547Z,13.70
2022-08-17T12:14:04.538Z,21.70
2022-08-17T12:16:31.194Z,12.87
2022-08-17T12:19:02.627Z,20.70
2022-08-17T12:21:46.129Z,19.73
2022-08-17T12:24:29.261Z,21.17
2022-08-17T12:27:00.869Z,14.03
2022-08-17T12:29:35.411Z,19.53
2022-08-17T12:32:06.853Z,22.43
2022-08-17T12:34:39.230Z,11.93
2022-08-17T12:37:15.237Z,12.70
2022-08-17T12:39:55.956Z,16.50
2022-08-17T12:42:26.780Z,12.67
2022-08-17T12:44:53.492Z,19.63
2022-08-17T12:47:22.820Z,10.70
2022-08-17T12:49:52.905Z,19.40
2022-08-17T12:52:19.472Z,15.73
2022-08-17T12:54:51.708Z,22.07
2022-08-17T12:57:29.165Z,12.03
2022-08-17T13:00:01.235Z,15.87
2022-08-17T13:02:32.463Z,10.53
2022-08-17T13:05:01.429Z,19.97
2022-08-17T13:07:35.089Z,20.73
2022-08-17T13:10:02.869Z,20.17
2022-08-17T13:12:33.069Z,13.20
2022-08-17T13:15:00.325Z,13.60
2022-08-17T13:17:35.710Z,20.97
2022-08-17T13:20:05.365Z,12.63
2022-08-17T13:22:32.487Z,14.17
2022-08-17T13:25:07.293Z,19.47
2022-08-17T13:27:34.181Z,15.80
2022-08-17T13:30:07.747Z,15.60
2022-08-17T13:32:43.595Z,15.60
2022-08-17T13:35:39.947Z,21.40
2022-08-17T13:38:07.723Z,25.70
2022-08-17T13:40:42.106Z,17.50
2022-08-17T13:43:10.242Z,21.53
2022-08-17T13:45:50.717Z,17.73
2022-08-17T13:48:23.532Z,33.30
2022-08-17T13:50:59.507Z,24.60
2022-08-17T13:53:50.415Z,17.77
2022-08-17T13:56:39.062Z,30.53
2022-08-17T13:59:12.634Z,18.67
2022-08-17T14:01:42.267Z,20.10
2022-08-17T14:04:18.901Z,26.07
2022-08-17T14:06:51.809Z,18.97
2022-08-17T14:09:25.943Z,21.53
2022-08-17T14:11:54.705Z,31.27
2022-08-17T14:14:23.048Z,23.13
2022-08-17T14:16:53.508Z,23.70
2022-08-17T14:19:21.947Z,32.20
2022-08-17T14:21:49.190Z,17.97
2022-08-17T14:24:23.756Z,24.93
2022-08-17T14:26:52.800Z,22.80
2022-08-17T14:29:24.145Z,27.57
2022-08-17T14:31:54.230Z,18.27
2022-08-17T14:34:22.043Z,34.63
2022-08-17T14:36:51.927Z,23.07
2022-08-17T14:39:20.326Z,36.87
2022-08-17T14:41:47.176Z,26.50
2022-08-17T14:44:14.092Z,30.83
2022-08-17T14:46:43.001Z,24.23
2022-08-17T14:49:11.583Z,24.90
2022-08-17T14:51:41.632Z,16.10
2022-08-17T14:54:12.023Z,31.87
2022-08-17T14:57:22.630Z,19.70
2022-08-17T14:59:45.665Z,17.40
2022-08-17T15:02:13.142Z,27.27
2022-08-17T15:04:45.401Z,24.17
2022-08-17T15:07:12.367Z,25.73
2022-08-17T15:09:39.099Z,22.47
2022-08-17T15:12:06.526Z,34.40
2022-08-17T15:14:35.260Z,34.80
2022-08-17T15:17:03.052Z,31.07
2022-08-17T15:19:29.715Z,25.53
2022-08-17T15:21:56.280Z,31.67
2022-08-17T15:24:22.893Z,33.73
2022-08-17T15:26:49.791Z,28.67
2022-08-17T15:29:16.422Z,37.27
2022-08-17T15:31:43.636Z,35.43
2022-08-17T15:34:10.285Z,34.37
2022-08-17T15:36:36.980Z,40.77
2022-08-17T15:39:04.278Z,34.67
2022-08-17T15:41:31.181Z,30.70
2022-08-17T15:43:57.852Z,29.17
2022-08-17T15:46:25.847Z,29.07
2022-08-17T15:48:55.531Z,33.70
2022-08-17T15:51:26.991Z,27.70
2022-08-17T15:53:56.706Z,30.13
2022-08-17T15:56:25.133Z,32.23
2022-08-17T15:58:52.505Z,34.30
2022-08-17T16:01:42.253Z,33.07
2022-08-17T16:04:26.775Z,37.20
2022-08-17T16:06:54.561Z,34.33
2022-08-17T16:09:21.150Z,27.80
2022-08-17T16:11:53.688Z,27.50
2022-08-17T16:14:22.285Z,20.07
2022-08-17T16:16:49.749Z,24.90
2022-08-17T16:19:16.333Z,19.30
2022-08-17T16:21:43.386Z,38.20
2022-08-17T16:24:13.081Z,36.10
2022-08-17T16:26:41.577Z,23.63
2022-08-17T16:29:08.775Z,17.43
2022-08-17T16:31:37.506Z,32.50
2022-08-17T16:34:18.071Z,32.40
2022-08-17T16:36:55.559Z,38.40
2022-08-17T16:39:27.612Z,17.97
2022-08-17T16:41:55.796Z,19.33
2022-08-17T16:44:22.529Z,24.00
2022-08-17T16:46:50.092Z,27.90
2022-08-17T16:49:31.559Z,21.80
2022-08-17T16:52:03.546Z,29.63
2022-08-17T16:54:30.264Z,30.53
2022-08-17T16:56:56.912Z,19.90
2022-08-17T16:59:38.787Z,27.40
2022-08-17T17:02:11.092Z,23.67
2022-08-17T17:04:57.445Z,18.13
2022-08-17T17:07:53.260Z,21.87
2022-08-17T17:10:26.124Z,28.97
2022-08-17T17:13:02.120Z,20.90
2022-08-17T17:15:57.523Z,35.93
2022-08-17T17:18:37.550Z,21.33
2022-08-17T17:21:06.359Z,32.20
2022-08-17T17:23:44.721Z,30.53
2022-08-17T17:26:38.878Z,18.70
2022-08-17T17:29:28.232Z,27.17
2022-08-17T17:32:20.933Z,19.33
2022-08-17T17:35:01.640Z,29.80
2022-08-17T17:37:32.976Z,28.37
2022-08-17T17:40:28.236Z,20.30
2022-08-17T17:43:09.422Z,31.63
2022-08-17T17:46:26.587Z,19.10
2022-08-17T17:48:48.368Z,23.00
2022-08-17T17:52:09.202Z,35.10
2022-08-17T17:54:33.670Z,33.60
2022-08-17T17:57:29.521Z,31.97
2022-08-17T18:00:14.144Z,20.43
2022-08-17T18:03:04.264Z,28.90
2022-08-17T18:06:00.606Z,32.30
2022-08-17T18:08:52.812Z,32.30
2022-08-17T18:11:42.292Z,23.40
2022-08-17T18:14:37.664Z,34.27
2022-08-17T18:17:05.640Z,24.70
2022-08-17T18:19:32.584Z,31.33
2022-08-17T18:22:06.693Z,20.73
2022-08-17T18:24:39.746Z,29.10
2022-08-17T18:27:24.739Z,25.40
2022-08-17T18:29:54.748Z,21.10
2022-08-17T18:32:32.363Z,37.17
2022-08-17T18:35:10.197Z,37.10
2022-08-17T18:37:51.261Z,32.30
2022-08-17T18:40:18.382Z,29.30
2022-08-17T18:43:12.329Z,31.63
2022-08-17T18:45:38.906Z,31.17
2022-08-17T18:48:17.776Z,30.67
2022-08-17T18:50:44.545Z,30.40
2022-08-17T18:53:30.325Z,20.50
2022-08-17T18:56:22.919Z,35.70
2022-08-17T18:59:17.204Z,15.87
2022-08-17T19:01:59.977Z,25.73
2022-08-17T19:04:36.594Z,21.37
2022-08-17T19:07:21.996Z,31.17
2022-08-17T19:09:53.469Z,33.60
2022-08-17T19:12:52.472Z,33.67
2022-08-17T19:16:12.049Z,28.80
2022-08-17T19:18:41.443Z,31.30
2022-08-17T19:21:12.386Z,27.43
2022-08-17T19:23:53.362Z,31.87
2022-08-17T19:26:54.419Z,37.20
2022-08-17T19:29:37.075Z,31.40
2022-08-17T19:32:06.461Z,22.50
2022-08-17T19:34:35.484Z,29.70
2022-08-17T19:37:25.167Z,31.43
2022-08-17T19:39:54.783Z,32.93
2022-08-17T19:42:47.510Z,33.00
2022-08-17T19:45:29.394Z,33.67
2022-08-17T19:48:23.974Z,30.93
2022-08-17T19:51:10.435Z,35.70
2022-08-17T19:54:04.356Z,32.80
2022-08-17T19:57:08.681Z,32.27
2022-08-17T19:59:55.579Z,33.50
2022-08-17T20:02:46.824Z,24.90
2022-08-17T20:05:25.510Z,34.00
2022-08-17T20:08:00.417Z,37.30
2022-08-17T20:10:36.371Z,37.23
2022-08-17T20:13:08.901Z,33.83
2022-08-17T20:15:40.185Z,36.50
2022-08-17T20:18:15.184Z,40.13
2022-08-17T20:20:58.141Z,40.73
2022-08-17T20:23:43.204Z,42.57
2022-08-17T20:26:33.833Z,33.37
2022-08-17T20:29:16.520Z,39.53
2022-08-17T20:31:49.425Z,18.87
2022-08-17T20:34:33.410Z,39.37
2022-08-17T20:37:15.430Z,41.37
2022-08-17T20:39:43.751Z,22.70
2022-08-17T20:42:22.423Z,31.17
2022-08-17T20:44:57.887Z,38.77
2022-08-17T20:48:00.765Z,33.00
2022-08-17T20:50:34.465Z,37.93
2022-08-17T20:53:03.461Z,38.50
2022-08-17T20:55:51.868Z,42.23
2022-08-17T20:58:42.113Z,37.50
2022-08-17T21:01:20.162Z,41.90
2022-08-17T21:03:51.886Z,38.67
2022-08-17T21:06:21.914Z,38.27
2022-08-17T21:08:53.420Z,42.27
2022-08-17T21:12:02.306Z,39.03
2022-08-17T21:14:38.370Z,42.13
2022-08-17T21:17:29.366Z,41.60
2022-08-17T21:20:34.083Z,45.57
2022-08-17T21:23:18.721Z,43.57
2022-08-17T21:26:07.919Z,37.57
2022-08-17T21:29:00.929Z,46.27
2022-08-17T21:31:36.384Z,46.17
2022-08-17T21:34:15.318Z,44.83
2022-08-17T21:36:47.997Z,45.20
2022-08-17T21:39:39.105Z,44.80
2022-08-17T21:42:07.187Z,46.70
2022-08-17T21:44:41.786Z,46.73
2022-08-17T21:47:14.925Z,48.07
2022-08-17T21:49:41.554Z,51.33
2022-08-17T21:52:12.592Z,45.43
2022-08-17T21:54:47.994Z,43.27
2022-08-17T21:57:27.204Z,47.57
2022-08-17T21:59:57.330Z,48.90
2022-08-17T22:02:38.009Z,51.30
2022-08-17T22:05:11.431Z,48.43
2022-08-17T22:07:45.794Z,41.10
2022-08-17T22:10:37.673Z,45.03
2022-08-17T22:13:16.924Z,45.20
2022-08-17T22:15:47.243Z,48.10
2022-08-17T22:18:26.800Z,43.27
2022-08-17T22:20:56.493Z,46.90
2022-08-17T22:23:48.681Z,47.07
2022-08-17T22:26:17.890Z,45.00
2022-08-17T22:28:52.656Z,46.13
2022-08-17T22:31:24.454Z,48.10
2022-08-17T22:34:00.027Z,50.03
2022-08-17T22:36:30.958Z,52.77
2022-08-17T22:39:22.223Z,41.63
2022-08-17T22:42:02.342Z,59.37
2022-08-17T22:44:33.888Z,41.20
2022-08-17T22:47:16.824Z,50.93
2022-08-17T22:50:01.781Z,57.40
2022-08-17T22:52:32.414Z,61.90
2022-08-17T22:55:27.073Z,53.00
2022-08-17T22:58:12.457Z,57.53
2022-08-17T23:00:45.053Z,52.70
2022-08-17T23:03:14.625Z,54.87
2022-08-17T23:05:44.811Z,44.03
2022-08-17T23:08:13.415Z,54.10
2022-08-17T23:10:41.732Z,34.50
2022-08-17T23:13:11.702Z,49.90
2022-08-17T23:15:40.342Z,50.30
2022-08-17T23:18:07.762Z,60.43
2022-08-17T23:20:36.853Z,59.33
2022-08-17T23:23:07.741Z,56.73
2022-08-17T23:25:35.359Z,59.60
2022-08-17T23:28:05.202Z,69.03
2022-08-17T23:30:34.794Z,60.90
2022-08-17T23:33:05.403Z,61.13
2022-08-17T23:35:40.296Z,66.93
2022-08-17T23:38:09.795Z,66.90
2022-08-17T23:40:37.792Z,62.90
2022-08-17T23:43:17.434Z,67.33
2022-08-17T23:45:52.233Z,62.00
2022-08-17T23:48:34.130Z,54.37
2022-08-17T23:51:18.888Z,58.23
2022-08-17T23:53:49.942Z,55.13
2022-08-17T23:56:21.011Z,56.20
2022-08-17T23:58:47.621Z,57.20
